PWSweather.com
Personal Weather Stations
Station Observations

Acton, CA 93510

Lat: 34.47703, Lon: -118.17483

Elevation: 2900

Station Type: Davis Vantage Pro 2

http://www.actonastro.com/weather/current.php

High Low Average
Temperature 81.6°F27.6°F 55.9°F13.3°F 67.3°F19.6°F
Dew Point 33.4°F0.8°F 24.7°F-4.1°F 29.0°F-1.7°F
Winds 10.0 mph ESE16.1 mph ESE Calm Calm 3.3 mph 5.3 mph
Wind Gusts 16.0 mph25.7 mph -- 7.5 mph12.1 mph
Humidity 33% 16% 24%
Pressure 29.96 in1014.60 in 29.80 in1009.10 in -
Precipitation 0.00 in0.00 in - -
Hour Temp Dew Point Humidity Winds Wind Gusts Pressure Precip Precip Rate Daily Precip Total
12:00 AM 62.8°F17.1°C 33.3°F0.7°C 33% 5.0 mph WSW8.0 kmh WSW 9.0 mph14.5 kmh 29.95 in1014.2 mb 0.00 in0.0 mm 0.00 in0.0 mm 0.00 in0.0 mm
12:05 AM 63.0°F17.2°C 33.4°F0.8°C 33% 3.0 mph WSW4.8 kmh WSW 9.0 mph14.5 kmh 29.95 in1014.2 mb 0.00 in0.0 mm 0.00 in0.0 mm 0.00 in0.0 mm
12:10 AM 61.8°F16.6°C 28.4°F-2.0°C 28% 3.0 mph ENE4.8 kmh ENE 9.0 mph14.5 kmh 29.95 in1014.2 mb 0.00 in0.0 mm 0.00 in0.0 mm 0.00 in0.0 mm
12:15 AM 61.6°F16.4°C 28.2°F-2.1°C 28% 4.0 mph ENE6.4 kmh ENE 9.0 mph14.5 kmh 29.96 in1014.6 mb 0.00 in0.0 mm 0.00 in0.0 mm 0.00 in0.0 mm
12:20 AM 61.6°F16.4°C 27.3°F-2.6°C 27% 5.0 mph ENE8.0 kmh ENE 7.0 mph11.3 kmh 29.96 in1014.6 mb 0.00 in0.0 mm 0.00 in0.0 mm 0.00 in0.0 mm
12:25 AM 61.5°F16.4°C 28.1°F-2.2°C 28% 4.0 mph ESE6.4 kmh ESE 7.0 mph11.3 kmh 29.96 in1014.6 mb 0.00 in0.0 mm 0.00 in0.0 mm 0.00 in0.0 mm
12:30 AM 61.2°F16.2°C 27.8°F-2.3°C 28% 6.0 mph ENE9.7 kmh ENE 7.0 mph11.3 kmh 29.95 in1014.2 mb 0.00 in0.0 mm 0.00 in0.0 mm 0.00 in0.0 mm
12:35 AM 61.3°F16.3°C 27.9°F-2.3°C 28% 5.0 mph NE8.0 kmh NE 9.0 mph14.5 kmh 29.95 in1014.2 mb 0.00 in0.0 mm 0.00 in0.0 mm 0.00 in0.0 mm
12:40 AM 61.5°F16.4°C 27.2°F-2.7°C 27% 9.0 mph NE14.5 kmh NE 9.0 mph14.5 kmh 29.95 in1014.2 mb 0.00 in0.0 mm 0.00 in0.0 mm 0.00 in0.0 mm
12:45 AM 61.5°F16.4°C 27.2°F-2.7°C 27% 6.0 mph ENE9.7 kmh ENE 9.0 mph14.5 kmh 29.95 in1014.2 mb 0.00 in0.0 mm 0.00 in0.0 mm 0.00 in0.0 mm
12:50 AM 61.6°F16.4°C 27.3°F-2.6°C 27% 6.0 mph NE9.7 kmh NE 10.0 mph16.1 kmh 29.95 in1014.2 mb 0.00 in0.0 mm 0.00 in0.0 mm 0.00 in0.0 mm
12:55 AM 62.0°F16.7°C 28.5°F-1.9°C 28% 4.0 mph NE6.4 kmh NE 10.0 mph16.1 kmh 29.95 in1014.2 mb 0.00 in0.0 mm 0.00 in0.0 mm 0.00 in0.0 mm
01:00 AM 62.0°F16.7°C 28.5°F-1.9°C 28% 4.0 mph NE6.4 kmh NE 10.0 mph16.1 kmh 29.95 in1014.2 mb 0.00 in0.0 mm 0.00 in0.0 mm 0.00 in0.0 mm
01:05 AM 62.0°F16.7°C 28.5°F-1.9°C 28% 3.0 mph NE4.8 kmh NE 10.0 mph16.1 kmh 29.95 in1014.2 mb 0.00 in0.0 mm 0.00 in0.0 mm 0.00 in0.0 mm
01:10 AM 62.0°F16.7°C 28.5°F-1.9°C 28% 4.0 mph NE6.4 kmh NE 7.0 mph11.3 kmh 29.95 in1014.2 mb 0.00 in0.0 mm 0.00 in0.0 mm 0.00 in0.0 mm
01:15 AM 61.8°F16.6°C 28.4°F-2.0°C 28% 3.0 mph NE4.8 kmh NE 7.0 mph11.3 kmh 29.94 in1013.9 mb 0.00 in0.0 mm 0.00 in0.0 mm 0.00 in0.0 mm
01:20 AM 62.0°F16.7°C 28.5°F-1.9°C 28% 3.0 mph ENE4.8 kmh ENE 6.0 mph9.7 kmh 29.94 in1013.9 mb 0.00 in0.0 mm 0.00 in0.0 mm 0.00 in0.0 mm
01:25 AM 61.8°F16.6°C 28.4°F-2.0°C 28% 3.0 mph E4.8 kmh E 6.0 mph9.7 kmh 29.94 in1013.9 mb 0.00 in0.0 mm 0.00 in0.0 mm 0.00 in0.0 mm
01:30 AM 61.8°F16.6°C 28.4°F-2.0°C 28% 4.0 mph NE6.4 kmh NE 5.0 mph8.0 kmh 29.94 in1013.9 mb 0.00 in0.0 mm 0.00 in0.0 mm 0.00 in0.0 mm
01:35 AM 62.0°F16.7°C 28.5°F-1.9°C 28% 3.0 mph ENE4.8 kmh ENE 6.0 mph9.7 kmh 29.94 in1013.9 mb 0.00 in0.0 mm 0.00 in0.0 mm 0.00 in0.0 mm
01:40 AM 62.0°F16.7°C 28.5°F-1.9°C 28% 4.0 mph E6.4 kmh E 6.0 mph9.7 kmh 29.94 in1013.9 mb 0.00 in0.0 mm 0.00 in0.0 mm 0.00 in0.0 mm
01:45 AM 61.8°F16.6°C 28.4°F-2.0°C 28% 3.0 mph NE4.8 kmh NE 6.0 mph9.7 kmh 29.93 in1013.5 mb 0.00 in0.0 mm 0.00 in0.0 mm 0.00 in0.0 mm
01:50 AM 61.6°F16.4°C 27.3°F-2.6°C 27% 3.0 mph NE4.8 kmh NE 6.0 mph9.7 kmh 29.93 in1013.5 mb 0.00 in0.0 mm 0.00 in0.0 mm 0.00 in0.0 mm
01:55 AM 61.8°F16.6°C 27.5°F-2.5°C 27% 5.0 mph NE8.0 kmh NE 7.0 mph11.3 kmh 29.93 in1013.5 mb 0.00 in0.0 mm 0.00 in0.0 mm 0.00 in0.0 mm
02:00 AM 61.8°F16.6°C 28.4°F-2.0°C 28% 4.0 mph NE6.4 kmh NE 7.0 mph11.3 kmh 29.93 in1013.5 mb 0.00 in0.0 mm 0.00 in0.0 mm 0.00 in0.0 mm
02:05 AM 61.8°F16.6°C 28.4°F-2.0°C 28% 3.0 mph NE4.8 kmh NE 7.0 mph11.3 kmh 29.93 in1013.5 mb 0.00 in0.0 mm 0.00 in0.0 mm 0.00 in0.0 mm
02:10 AM 61.6°F16.4°C 27.3°F-2.6°C 27% 3.0 mph NE4.8 kmh NE 7.0 mph11.3 kmh 29.93 in1013.5 mb 0.00 in0.0 mm 0.00 in0.0 mm 0.00 in0.0 mm
02:15 AM 61.5°F16.4°C 28.1°F-2.2°C 28% 5.0 mph NE8.0 kmh NE 8.0 mph12.9 kmh 29.93 in1013.5 mb 0.00 in0.0 mm 0.00 in0.0 mm 0.00 in0.0 mm
02:20 AM 61.5°F16.4°C 28.1°F-2.2°C 28% 5.0 mph ENE8.0 kmh ENE 8.0 mph12.9 kmh 29.93 in1013.5 mb 0.00 in0.0 mm 0.00 in0.0 mm 0.00 in0.0 mm
02:25 AM 61.3°F16.3°C 27.9°F-2.3°C 28% 3.0 mph NE4.8 kmh NE 8.0 mph12.9 kmh 29.93 in1013.5 mb 0.00 in0.0 mm 0.00 in0.0 mm 0.00 in0.0 mm
02:30 AM 61.2°F16.2°C 27.8°F-2.3°C 28% 3.0 mph NE4.8 kmh NE 8.0 mph12.9 kmh 29.93 in1013.5 mb 0.00 in0.0 mm 0.00 in0.0 mm 0.00 in0.0 mm
02:35 AM 60.9°F16.1°C 27.6°F-2.4°C 28% 3.0 mph NE4.8 kmh NE 6.0 mph9.7 kmh 29.93 in1013.5 mb 0.00 in0.0 mm 0.00 in0.0 mm 0.00 in0.0 mm
02:40 AM 60.7°F15.9°C 27.4°F-2.6°C 28% 3.0 mph NE4.8 kmh NE 6.0 mph9.7 kmh 29.93 in1013.5 mb 0.00 in0.0 mm 0.00 in0.0 mm 0.00 in0.0 mm
02:45 AM 60.5°F15.8°C 27.2°F-2.7°C 28% 5.0 mph NE8.0 kmh NE 6.0 mph9.7 kmh 29.93 in1013.5 mb 0.00 in0.0 mm 0.00 in0.0 mm 0.00 in0.0 mm
02:50 AM 60.9°F16.1°C 27.6°F-2.4°C 28% 6.0 mph NE9.7 kmh NE 7.0 mph11.3 kmh 29.93 in1013.5 mb 0.00 in0.0 mm 0.00 in0.0 mm 0.00 in0.0 mm
02:55 AM 61.0°F16.1°C 27.7°F-2.4°C 28% 5.0 mph NE8.0 kmh NE 7.0 mph11.3 kmh 29.93 in1013.5 mb 0.00 in0.0 mm 0.00 in0.0 mm 0.00 in0.0 mm
03:00 AM 60.9°F16.1°C 27.6°F-2.4°C 28% 7.0 mph ENE11.3 kmh ENE 8.0 mph12.9 kmh 29.92 in1013.2 mb 0.00 in0.0 mm 0.00 in0.0 mm 0.00 in0.0 mm
03:05 AM 60.9°F16.1°C 27.6°F-2.4°C 28% 3.0 mph E4.8 kmh E 9.0 mph14.5 kmh 29.92 in1013.2 mb 0.00 in0.0 mm 0.00 in0.0 mm 0.00 in0.0 mm
03:10 AM 60.7°F15.9°C 27.4°F-2.6°C 28% 5.0 mph NE8.0 kmh NE 9.0 mph14.5 kmh 29.92 in1013.2 mb 0.00 in0.0 mm 0.00 in0.0 mm 0.00 in0.0 mm
03:15 AM 60.5°F15.8°C 27.2°F-2.7°C 28% 3.0 mph NE4.8 kmh NE 9.0 mph14.5 kmh 29.93 in1013.5 mb 0.00 in0.0 mm 0.00 in0.0 mm 0.00 in0.0 mm
03:20 AM 60.4°F15.8°C 27.1°F-2.7°C 28% 5.0 mph NE8.0 kmh NE 9.0 mph14.5 kmh 29.93 in1013.5 mb 0.00 in0.0 mm 0.00 in0.0 mm 0.00 in0.0 mm
03:25 AM 60.4°F15.8°C 27.1°F-2.7°C 28% 3.0 mph NE4.8 kmh NE 7.0 mph11.3 kmh 29.93 in1013.5 mb 0.00 in0.0 mm 0.00 in0.0 mm 0.00 in0.0 mm
03:30 AM 60.2°F15.7°C 27.0°F-2.8°C 28% 4.0 mph ENE6.4 kmh ENE 7.0 mph11.3 kmh 29.93 in1013.5 mb 0.00 in0.0 mm 0.00 in0.0 mm 0.00 in0.0 mm
03:35 AM 60.1°F15.6°C 27.7°F-2.4°C 29% 6.0 mph ENE9.7 kmh ENE 9.0 mph14.5 kmh 29.93 in1013.5 mb 0.00 in0.0 mm 0.00 in0.0 mm 0.00 in0.0 mm
03:40 AM 59.9°F15.5°C 27.6°F-2.4°C 29% 7.0 mph ENE11.3 kmh ENE 11.0 mph17.7 kmh 29.93 in1013.5 mb 0.00 in0.0 mm 0.00 in0.0 mm 0.00 in0.0 mm
03:45 AM 59.8°F15.4°C 27.5°F-2.5°C 29% 4.0 mph NE6.4 kmh NE 11.0 mph17.7 kmh 29.92 in1013.2 mb 0.00 in0.0 mm 0.00 in0.0 mm 0.00 in0.0 mm
03:50 AM 59.6°F15.3°C 27.3°F-2.6°C 29% 5.0 mph ENE8.0 kmh ENE 11.0 mph17.7 kmh 29.92 in1013.2 mb 0.00 in0.0 mm 0.00 in0.0 mm 0.00 in0.0 mm
03:55 AM 59.6°F15.3°C 27.3°F-2.6°C 29% 5.0 mph NE8.0 kmh NE 11.0 mph17.7 kmh 29.92 in1013.2 mb 0.00 in0.0 mm 0.00 in0.0 mm 0.00 in0.0 mm
04:00 AM 59.6°F15.3°C 27.3°F-2.6°C 29% 6.0 mph ENE9.7 kmh ENE 9.0 mph14.5 kmh 29.93 in1013.5 mb 0.00 in0.0 mm 0.00 in0.0 mm 0.00 in0.0 mm
04:05 AM 59.8°F15.4°C 27.5°F-2.5°C 29% 6.0 mph NE9.7 kmh NE 10.0 mph16.1 kmh 29.93 in1013.5 mb 0.00 in0.0 mm 0.00 in0.0 mm 0.00 in0.0 mm
04:10 AM 59.9°F15.5°C 27.6°F-2.4°C 29% 5.0 mph ENE8.0 kmh ENE 10.0 mph16.1 kmh 29.93 in1013.5 mb 0.00 in0.0 mm 0.00 in0.0 mm 0.00 in0.0 mm
04:15 AM 59.9°F15.5°C 27.6°F-2.4°C 29% 6.0 mph NE9.7 kmh NE 10.0 mph16.1 kmh 29.93 in1013.5 mb 0.00 in0.0 mm 0.00 in0.0 mm 0.00 in0.0 mm
04:20 AM 60.1°F15.6°C 27.7°F-2.4°C 29% 4.0 mph NE6.4 kmh NE 10.0 mph16.1 kmh 29.93 in1013.5 mb 0.00 in0.0 mm 0.00 in0.0 mm 0.00 in0.0 mm
04:25 AM 60.1°F15.6°C 27.7°F-2.4°C 29% 3.0 mph ENE4.8 kmh ENE 10.0 mph16.1 kmh 29.93 in1013.5 mb 0.00 in0.0 mm 0.00 in0.0 mm 0.00 in0.0 mm
04:30 AM 60.1°F15.6°C 27.7°F-2.4°C 29% 4.0 mph ENE6.4 kmh ENE 10.0 mph16.1 kmh 29.93 in1013.5 mb 0.00 in0.0 mm 0.00 in0.0 mm 0.00 in0.0 mm
04:35 AM 60.1°F15.6°C 27.7°F-2.4°C 29% 2.0 mph NE3.2 kmh NE 6.0 mph9.7 kmh 29.93 in1013.5 mb 0.00 in0.0 mm 0.00 in0.0 mm 0.00 in0.0 mm
04:40 AM 59.8°F15.4°C 27.5°F-2.5°C 29% 4.0 mph NE6.4 kmh NE 6.0 mph9.7 kmh 29.93 in1013.5 mb 0.00 in0.0 mm 0.00 in0.0 mm 0.00 in0.0 mm
04:45 AM 59.8°F15.4°C 27.5°F-2.5°C 29% 4.0 mph NE6.4 kmh NE 6.0 mph9.7 kmh 29.93 in1013.5 mb 0.00 in0.0 mm 0.00 in0.0 mm 0.00 in0.0 mm
04:50 AM 59.6°F15.3°C 27.3°F-2.6°C 29% 5.0 mph NE8.0 kmh NE 7.0 mph11.3 kmh 29.93 in1013.5 mb 0.00 in0.0 mm 0.00 in0.0 mm 0.00 in0.0 mm
04:55 AM 60.1°F15.6°C 27.7°F-2.4°C 29% 5.0 mph NE8.0 kmh NE 7.0 mph11.3 kmh 29.93 in1013.5 mb 0.00 in0.0 mm 0.00 in0.0 mm 0.00 in0.0 mm
05:00 AM 60.4°F15.8°C 27.1°F-2.7°C 28% 5.0 mph NE8.0 kmh NE 10.0 mph16.1 kmh 29.93 in1013.5 mb 0.00 in0.0 mm 0.00 in0.0 mm 0.00 in0.0 mm
05:05 AM 60.7°F15.9°C 27.4°F-2.6°C 28% 6.0 mph NE9.7 kmh NE 10.0 mph16.1 kmh 29.93 in1013.5 mb 0.00 in0.0 mm 0.00 in0.0 mm 0.00 in0.0 mm
05:10 AM 60.9°F16.1°C 27.6°F-2.4°C 28% 4.0 mph ENE6.4 kmh ENE 10.0 mph16.1 kmh 29.93 in1013.5 mb 0.00 in0.0 mm 0.00 in0.0 mm 0.00 in0.0 mm
05:15 AM 61.2°F16.2°C 27.8°F-2.3°C 28% 3.0 mph NE4.8 kmh NE 10.0 mph16.1 kmh 29.95 in1014.2 mb 0.00 in0.0 mm 0.00 in0.0 mm 0.00 in0.0 mm
05:20 AM 61.0°F16.1°C 27.7°F-2.4°C 28% 5.0 mph NE8.0 kmh NE 10.0 mph16.1 kmh 29.95 in1014.2 mb 0.00 in0.0 mm 0.00 in0.0 mm 0.00 in0.0 mm
05:25 AM 61.0°F16.1°C 27.7°F-2.4°C 28% 3.0 mph NE4.8 kmh NE 10.0 mph16.1 kmh 29.95 in1014.2 mb 0.00 in0.0 mm 0.00 in0.0 mm 0.00 in0.0 mm
05:30 AM 60.9°F16.1°C 27.6°F-2.4°C 28% 3.0 mph NE4.8 kmh NE 10.0 mph16.1 kmh 29.95 in1014.2 mb 0.00 in0.0 mm 0.00 in0.0 mm 0.00 in0.0 mm
05:35 AM 60.5°F15.8°C 27.2°F-2.7°C 28% 3.0 mph NE4.8 kmh NE 10.0 mph16.1 kmh 29.95 in1014.2 mb 0.00 in0.0 mm 0.00 in0.0 mm 0.00 in0.0 mm
05:40 AM 60.4°F15.8°C 27.1°F-2.7°C 28% 3.0 mph NE4.8 kmh NE 9.0 mph14.5 kmh 29.95 in1014.2 mb 0.00 in0.0 mm 0.00 in0.0 mm 0.00 in0.0 mm
05:45 AM 60.2°F15.7°C 27.8°F-2.3°C 29% 3.0 mph NE4.8 kmh NE 9.0 mph14.5 kmh 29.94 in1013.9 mb 0.00 in0.0 mm 0.00 in0.0 mm 0.00 in0.0 mm
05:50 AM 60.2°F15.7°C 27.8°F-2.3°C 29% 3.0 mph ENE4.8 kmh ENE 7.0 mph11.3 kmh 29.94 in1013.9 mb 0.00 in0.0 mm 0.00 in0.0 mm 0.00 in0.0 mm
05:55 AM 60.2°F15.7°C 27.8°F-2.3°C 29% 2.0 mph NE3.2 kmh NE 7.0 mph11.3 kmh 29.94 in1013.9 mb 0.00 in0.0 mm 0.00 in0.0 mm 0.00 in0.0 mm
06:00 AM 60.4°F15.8°C 28.0°F-2.2°C 29% 3.0 mph NE4.8 kmh NE 7.0 mph11.3 kmh 29.94 in1013.9 mb 0.00 in0.0 mm 0.00 in0.0 mm 0.00 in0.0 mm
06:05 AM 60.2°F15.7°C 27.8°F-2.3°C 29% 4.0 mph NE6.4 kmh NE 7.0 mph11.3 kmh 29.94 in1013.9 mb 0.00 in0.0 mm 0.00 in0.0 mm 0.00 in0.0 mm
06:10 AM 59.9°F15.5°C 28.4°F-2.0°C 30% 3.0 mph ENE4.8 kmh ENE 6.0 mph9.7 kmh 29.94 in1013.9 mb 0.00 in0.0 mm 0.00 in0.0 mm 0.00 in0.0 mm
06:15 AM 59.6°F15.3°C 28.1°F-2.2°C 30% 1.0 mph E1.6 kmh E 6.0 mph9.7 kmh 29.95 in1014.2 mb 0.00 in0.0 mm 0.00 in0.0 mm 0.00 in0.0 mm
06:20 AM 59.3°F15.2°C 28.7°F-1.8°C 31% 3.0 mph E4.8 kmh E 5.0 mph8.0 kmh 29.95 in1014.2 mb 0.00 in0.0 mm 0.00 in0.0 mm 0.00 in0.0 mm
06:25 AM 59.3°F15.2°C 28.7°F-1.8°C 31% 3.0 mph NE4.8 kmh NE 6.0 mph9.7 kmh 29.95 in1014.2 mb 0.00 in0.0 mm 0.00 in0.0 mm 0.00 in0.0 mm
06:30 AM 59.3°F15.2°C 28.7°F-1.8°C 31% 2.0 mph E3.2 kmh E 6.0 mph9.7 kmh 29.95 in1014.2 mb 0.00 in0.0 mm 0.00 in0.0 mm 0.00 in0.0 mm
06:35 AM 59.3°F15.2°C 27.9°F-2.3°C 30% 1.0 mph E1.6 kmh E 6.0 mph9.7 kmh 29.95 in1014.2 mb 0.00 in0.0 mm 0.00 in0.0 mm 0.00 in0.0 mm
06:40 AM 59.0°F15.0°C 28.4°F-2.0°C 31% 4.0 mph ENE6.4 kmh ENE 6.0 mph9.7 kmh 29.95 in1014.2 mb 0.00 in0.0 mm 0.00 in0.0 mm 0.00 in0.0 mm
06:45 AM 59.8°F15.4°C 28.3°F-2.1°C 30% 7.0 mph NE11.3 kmh NE 9.0 mph14.5 kmh 29.95 in1014.2 mb 0.00 in0.0 mm 0.00 in0.0 mm 0.00 in0.0 mm
06:50 AM 60.4°F15.8°C 28.0°F-2.2°C 29% 5.0 mph ENE8.0 kmh ENE 10.0 mph16.1 kmh 29.95 in1014.2 mb 0.00 in0.0 mm 0.00 in0.0 mm 0.00 in0.0 mm
06:55 AM 60.7°F15.9°C 27.4°F-2.6°C 28% 4.0 mph NE6.4 kmh NE 10.0 mph16.1 kmh 29.95 in1014.2 mb 0.00 in0.0 mm 0.00 in0.0 mm 0.00 in0.0 mm
07:00 AM 60.9°F16.1°C 27.6°F-2.4°C 28% 5.0 mph NE8.0 kmh NE 10.0 mph16.1 kmh 29.95 in1014.2 mb 0.00 in0.0 mm 0.00 in0.0 mm 0.00 in0.0 mm
07:05 AM 61.0°F16.1°C 27.7°F-2.4°C 28% 5.0 mph ENE8.0 kmh ENE 10.0 mph16.1 kmh 29.95 in1014.2 mb 0.00 in0.0 mm 0.00 in0.0 mm 0.00 in0.0 mm
07:10 AM 61.0°F16.1°C 27.7°F-2.4°C 28% 5.0 mph NE8.0 kmh NE 10.0 mph16.1 kmh 29.95 in1014.2 mb 0.00 in0.0 mm 0.00 in0.0 mm 0.00 in0.0 mm
07:15 AM 61.5°F16.4°C 28.1°F-2.2°C 28% 4.0 mph NE6.4 kmh NE 10.0 mph16.1 kmh 29.95 in1014.2 mb 0.00 in0.0 mm 0.00 in0.0 mm 0.00 in0.0 mm
07:20 AM 61.6°F16.4°C 28.2°F-2.1°C 28% 4.0 mph NE6.4 kmh NE 10.0 mph16.1 kmh 29.95 in1014.2 mb 0.00 in0.0 mm 0.00 in0.0 mm 0.00 in0.0 mm
07:25 AM 62.1°F16.7°C 28.6°F-1.9°C 28% 1.0 mph ENE1.6 kmh ENE 10.0 mph16.1 kmh 29.95 in1014.2 mb 0.00 in0.0 mm 0.00 in0.0 mm 0.00 in0.0 mm
07:30 AM 62.4°F16.9°C 28.0°F-2.2°C 27% 4.0 mph E6.4 kmh E 9.0 mph14.5 kmh 29.96 in1014.6 mb 0.00 in0.0 mm 0.00 in0.0 mm 0.00 in0.0 mm
07:35 AM 62.4°F16.9°C 28.0°F-2.2°C 27% 3.0 mph ENE4.8 kmh ENE 9.0 mph14.5 kmh 29.96 in1014.6 mb 0.00 in0.0 mm 0.00 in0.0 mm 0.00 in0.0 mm
07:40 AM 62.4°F16.9°C 28.9°F-1.7°C 28% 3.0 mph E4.8 kmh E 6.0 mph9.7 kmh 29.96 in1014.6 mb 0.00 in0.0 mm 0.00 in0.0 mm 0.00 in0.0 mm
07:45 AM 62.7°F17.1°C 28.2°F-2.1°C 27% 3.0 mph ESE4.8 kmh ESE 9.0 mph14.5 kmh 29.95 in1014.2 mb 0.00 in0.0 mm 0.00 in0.0 mm 0.00 in0.0 mm
07:50 AM 63.2°F17.3°C 29.6°F-1.3°C 28% 4.0 mph E6.4 kmh E 10.0 mph16.1 kmh 29.95 in1014.2 mb 0.00 in0.0 mm 0.00 in0.0 mm 0.00 in0.0 mm
07:55 AM 63.9°F17.7°C 30.2°F-1.0°C 28% 3.0 mph E4.8 kmh E 10.0 mph16.1 kmh 29.95 in1014.2 mb 0.00 in0.0 mm 0.00 in0.0 mm 0.00 in0.0 mm
08:00 AM 64.3°F17.9°C 29.6°F-1.3°C 27% 4.0 mph E6.4 kmh E 10.0 mph16.1 kmh 29.96 in1014.6 mb 0.00 in0.0 mm 0.00 in0.0 mm 0.00 in0.0 mm
08:05 AM 64.8°F18.2°C 30.0°F-1.1°C 27% 8.0 mph ESE12.9 kmh ESE 10.0 mph16.1 kmh 29.96 in1014.6 mb 0.00 in0.0 mm 0.00 in0.0 mm 0.00 in0.0 mm
08:10 AM 65.5°F18.6°C 29.7°F-1.3°C 26% 7.0 mph E11.3 kmh E 12.0 mph19.3 kmh 29.96 in1014.6 mb 0.00 in0.0 mm 0.00 in0.0 mm 0.00 in0.0 mm
08:15 AM 66.1°F18.9°C 29.3°F-1.5°C 25% 7.0 mph E11.3 kmh E 12.0 mph19.3 kmh 29.96 in1014.6 mb 0.00 in0.0 mm 0.00 in0.0 mm 0.00 in0.0 mm
08:20 AM 66.4°F19.1°C 29.5°F-1.4°C 25% 5.0 mph E8.0 kmh E 12.0 mph19.3 kmh 29.96 in1014.6 mb 0.00 in0.0 mm 0.00 in0.0 mm 0.00 in0.0 mm
08:25 AM 66.8°F19.3°C 29.8°F-1.2°C 25% 5.0 mph ESE8.0 kmh ESE 12.0 mph19.3 kmh 29.96 in1014.6 mb 0.00 in0.0 mm 0.00 in0.0 mm 0.00 in0.0 mm
08:30 AM 67.3°F19.6°C 29.3°F-1.5°C 24% 6.0 mph S9.7 kmh S 11.0 mph17.7 kmh 29.95 in1014.2 mb 0.00 in0.0 mm 0.00 in0.0 mm 0.00 in0.0 mm
08:35 AM 67.8°F19.9°C 29.7°F-1.3°C 24% 7.0 mph SE11.3 kmh SE 12.0 mph19.3 kmh 29.95 in1014.2 mb 0.00 in0.0 mm 0.00 in0.0 mm 0.00 in0.0 mm
08:40 AM 68.1°F20.1°C 29.9°F-1.2°C 24% 9.0 mph ESE14.5 kmh ESE 13.0 mph20.9 kmh 29.95 in1014.2 mb 0.00 in0.0 mm 0.00 in0.0 mm 0.00 in0.0 mm
08:45 AM 68.4°F20.2°C 30.2°F-1.0°C 24% 5.0 mph ENE8.0 kmh ENE 13.0 mph20.9 kmh 29.95 in1014.2 mb 0.00 in0.0 mm 0.00 in0.0 mm 0.00 in0.0 mm
08:50 AM 68.4°F20.2°C 30.2°F-1.0°C 24% 6.0 mph E9.7 kmh E 13.0 mph20.9 kmh 29.95 in1014.2 mb 0.00 in0.0 mm 0.00 in0.0 mm 0.00 in0.0 mm
08:55 AM 68.6°F20.3°C 30.4°F-0.9°C 24% 7.0 mph E11.3 kmh E 13.0 mph20.9 kmh 29.95 in1014.2 mb 0.00 in0.0 mm 0.00 in0.0 mm 0.00 in0.0 mm
09:00 AM 68.9°F20.5°C 30.6°F-0.8°C 24% 9.0 mph ESE14.5 kmh ESE 11.0 mph17.7 kmh 29.95 in1014.2 mb 0.00 in0.0 mm 0.00 in0.0 mm 0.00 in0.0 mm
09:05 AM 69.4°F20.8°C 31.0°F-0.6°C 24% 6.0 mph ESE9.7 kmh ESE 11.0 mph17.7 kmh 29.95 in1014.2 mb 0.00 in0.0 mm 0.00 in0.0 mm 0.00 in0.0 mm
09:10 AM 70.1°F21.2°C 29.5°F-1.4°C 22% 5.0 mph ESE8.0 kmh ESE 11.0 mph17.7 kmh 29.95 in1014.2 mb 0.00 in0.0 mm 0.00 in0.0 mm 0.00 in0.0 mm
09:15 AM 70.6°F21.4°C 29.9°F-1.2°C 22% 4.0 mph SE6.4 kmh SE 11.0 mph17.7 kmh 29.94 in1013.9 mb 0.00 in0.0 mm 0.00 in0.0 mm 0.00 in0.0 mm
09:20 AM 70.9°F21.6°C 30.2°F-1.0°C 22% 8.0 mph E12.9 kmh E 11.0 mph17.7 kmh 29.94 in1013.9 mb 0.00 in0.0 mm 0.00 in0.0 mm 0.00 in0.0 mm
09:25 AM 71.5°F21.9°C 30.7°F-0.7°C 22% 7.0 mph ESE11.3 kmh ESE 11.0 mph17.7 kmh 29.94 in1013.9 mb 0.00 in0.0 mm 0.00 in0.0 mm 0.00 in0.0 mm
09:30 AM 72.0°F22.2°C 31.1°F-0.5°C 22% 4.0 mph E6.4 kmh E 13.0 mph20.9 kmh 29.94 in1013.9 mb 0.00 in0.0 mm 0.00 in0.0 mm 0.00 in0.0 mm
09:35 AM 72.5°F22.5°C 30.3°F-0.9°C 21% 6.0 mph E9.7 kmh E 13.0 mph20.9 kmh 29.94 in1013.9 mb 0.00 in0.0 mm 0.00 in0.0 mm 0.00 in0.0 mm
09:40 AM 73.0°F22.8°C 30.8°F-0.7°C 21% 5.0 mph ESE8.0 kmh ESE 13.0 mph20.9 kmh 29.94 in1013.9 mb 0.00 in0.0 mm 0.00 in0.0 mm 0.00 in0.0 mm
09:45 AM 73.5°F23.1°C 31.2°F-0.4°C 21% 3.0 mph E4.8 kmh E 13.0 mph20.9 kmh 29.93 in1013.5 mb 0.00 in0.0 mm 0.00 in0.0 mm 0.00 in0.0 mm
09:50 AM 73.9°F23.3°C 30.3°F-0.9°C 20% 3.0 mph E4.8 kmh E 12.0 mph19.3 kmh 29.93 in1013.5 mb 0.00 in0.0 mm 0.00 in0.0 mm 0.00 in0.0 mm
09:55 AM 74.2°F23.4°C 29.3°F-1.5°C 19% 7.0 mph E11.3 kmh E 12.0 mph19.3 kmh 29.93 in1013.5 mb 0.00 in0.0 mm 0.00 in0.0 mm 0.00 in0.0 mm
10:00 AM 74.6°F23.7°C 30.9°F-0.6°C 20% 5.0 mph E8.0 kmh E 12.0 mph19.3 kmh 29.92 in1013.2 mb 0.00 in0.0 mm 0.00 in0.0 mm 0.00 in0.0 mm
10:05 AM 74.7°F23.7°C 31.0°F-0.6°C 20% 9.0 mph ENE14.5 kmh ENE 13.0 mph20.9 kmh 29.92 in1013.2 mb 0.00 in0.0 mm 0.00 in0.0 mm 0.00 in0.0 mm
10:10 AM 74.6°F23.7°C 29.6°F-1.3°C 19% 2.0 mph E3.2 kmh E 16.0 mph25.7 kmh 29.92 in1013.2 mb 0.00 in0.0 mm 0.00 in0.0 mm 0.00 in0.0 mm
10:15 AM 74.7°F23.7°C 29.7°F-1.3°C 19% 8.0 mph E12.9 kmh E 16.0 mph25.7 kmh 29.92 in1013.2 mb 0.00 in0.0 mm 0.00 in0.0 mm 0.00 in0.0 mm
10:20 AM 74.7°F23.7°C 29.7°F-1.3°C 19% 3.0 mph ENE4.8 kmh ENE 16.0 mph25.7 kmh 29.92 in1013.2 mb 0.00 in0.0 mm 0.00 in0.0 mm 0.00 in0.0 mm
10:25 AM 75.1°F23.9°C 31.3°F-0.4°C 20% 9.0 mph ENE14.5 kmh ENE 16.0 mph25.7 kmh 29.92 in1013.2 mb 0.00 in0.0 mm 0.00 in0.0 mm 0.00 in0.0 mm
10:30 AM 75.3°F24.1°C 31.4°F-0.3°C 20% 9.0 mph E14.5 kmh E 15.0 mph24.1 kmh 29.92 in1013.2 mb 0.00 in0.0 mm 0.00 in0.0 mm 0.00 in0.0 mm
10:35 AM 74.9°F23.8°C 31.1°F-0.5°C 20% 6.0 mph ESE9.7 kmh ESE 15.0 mph24.1 kmh 29.92 in1013.2 mb 0.00 in0.0 mm 0.00 in0.0 mm 0.00 in0.0 mm
10:40 AM 74.9°F23.8°C 31.1°F-0.5°C 20% 4.0 mph E6.4 kmh E 15.0 mph24.1 kmh 29.92 in1013.2 mb 0.00 in0.0 mm 0.00 in0.0 mm 0.00 in0.0 mm
10:45 AM 75.4°F24.1°C 31.5°F-0.3°C 20% 3.0 mph E4.8 kmh E 15.0 mph24.1 kmh 29.91 in1012.9 mb 0.00 in0.0 mm 0.00 in0.0 mm 0.00 in0.0 mm
10:50 AM 75.8°F24.3°C 31.9°F-0.1°C 20% 2.0 mph ENE3.2 kmh ENE 12.0 mph19.3 kmh 29.91 in1012.9 mb 0.00 in0.0 mm 0.00 in0.0 mm 0.00 in0.0 mm
10:55 AM 75.8°F24.3°C 31.9°F-0.1°C 20% 4.0 mph E6.4 kmh E 12.0 mph19.3 kmh 29.91 in1012.9 mb 0.00 in0.0 mm 0.00 in0.0 mm 0.00 in0.0 mm
11:00 AM 75.8°F24.3°C 30.6°F-0.8°C 19% 3.0 mph ENE4.8 kmh ENE 12.0 mph19.3 kmh 29.91 in1012.9 mb 0.00 in0.0 mm 0.00 in0.0 mm 0.00 in0.0 mm
11:05 AM 76.0°F24.4°C 30.8°F-0.7°C 19% 3.0 mph ESE4.8 kmh ESE 12.0 mph19.3 kmh 29.91 in1012.9 mb 0.00 in0.0 mm 0.00 in0.0 mm 0.00 in0.0 mm
11:10 AM 76.3°F24.6°C 31.0°F-0.6°C 19% 3.0 mph E4.8 kmh E 13.0 mph20.9 kmh 29.91 in1012.9 mb 0.00 in0.0 mm 0.00 in0.0 mm 0.00 in0.0 mm
11:15 AM 76.5°F24.7°C 31.2°F-0.4°C 19% 5.0 mph E8.0 kmh E 15.0 mph24.1 kmh 29.89 in1012.2 mb 0.00 in0.0 mm 0.00 in0.0 mm 0.00 in0.0 mm
11:20 AM 76.1°F24.5°C 30.8°F-0.7°C 19% 7.0 mph SE11.3 kmh SE 15.0 mph24.1 kmh 29.89 in1012.2 mb 0.00 in0.0 mm 0.00 in0.0 mm 0.00 in0.0 mm
11:25 AM 76.3°F24.6°C 31.0°F-0.6°C 19% 4.0 mph E6.4 kmh E 15.0 mph24.1 kmh 29.89 in1012.2 mb 0.00 in0.0 mm 0.00 in0.0 mm 0.00 in0.0 mm
11:30 AM 77.0°F25.0°C 31.6°F-0.2°C 19% 6.0 mph SE9.7 kmh SE 15.0 mph24.1 kmh 29.89 in1012.2 mb 0.00 in0.0 mm 0.00 in0.0 mm 0.00 in0.0 mm
11:35 AM 77.7°F25.4°C 32.1°F0.1°C 19% 2.0 mph SE3.2 kmh SE 11.0 mph17.7 kmh 29.89 in1012.2 mb 0.00 in0.0 mm 0.00 in0.0 mm 0.00 in0.0 mm
11:40 AM 78.3°F25.7°C 31.3°F-0.4°C 18% 5.0 mph E8.0 kmh E 12.0 mph19.3 kmh 29.89 in1012.2 mb 0.00 in0.0 mm 0.00 in0.0 mm 0.00 in0.0 mm
11:45 AM 78.5°F25.8°C 31.5°F-0.3°C 18% 2.0 mph E3.2 kmh E 12.0 mph19.3 kmh 29.88 in1011.9 mb 0.00 in0.0 mm 0.00 in0.0 mm 0.00 in0.0 mm
11:50 AM 78.8°F26.0°C 31.7°F-0.2°C 18% 2.0 mph SE3.2 kmh SE 12.0 mph19.3 kmh 29.88 in1011.9 mb 0.00 in0.0 mm 0.00 in0.0 mm 0.00 in0.0 mm
11:55 AM 78.6°F25.9°C 30.1°F-1.1°C 17% 3.0 mph ESE4.8 kmh ESE 12.0 mph19.3 kmh 29.88 in1011.9 mb 0.00 in0.0 mm 0.00 in0.0 mm 0.00 in0.0 mm
12:00 PM 78.8°F26.0°C 30.3°F-0.9°C 17% 4.0 mph SE6.4 kmh SE 11.0 mph17.7 kmh 29.86 in1011.2 mb 0.00 in0.0 mm 0.00 in0.0 mm 0.00 in0.0 mm
12:05 PM 79.4°F26.3°C 30.8°F-0.7°C 17% 3.0 mph SE4.8 kmh SE 11.0 mph17.7 kmh 29.86 in1011.2 mb 0.00 in0.0 mm 0.00 in0.0 mm 0.00 in0.0 mm
12:10 PM 79.9°F26.6°C 31.2°F-0.4°C 17% 3.0 mph E4.8 kmh E 9.0 mph14.5 kmh 29.86 in1011.2 mb 0.00 in0.0 mm 0.00 in0.0 mm 0.00 in0.0 mm
12:15 PM 80.5°F26.9°C 31.7°F-0.2°C 17% 4.0 mph ESE6.4 kmh ESE 9.0 mph14.5 kmh 29.86 in1011.2 mb 0.00 in0.0 mm 0.00 in0.0 mm 0.00 in0.0 mm
12:20 PM 80.9°F27.2°C 32.0°F0.0°C 17% 7.0 mph SE11.3 kmh SE 10.0 mph16.1 kmh 29.86 in1011.2 mb 0.00 in0.0 mm 0.00 in0.0 mm 0.00 in0.0 mm
12:25 PM 81.1°F27.3°C 30.6°F-0.8°C 16% 9.0 mph E14.5 kmh E 10.0 mph16.1 kmh 29.86 in1011.2 mb 0.00 in0.0 mm 0.00 in0.0 mm 0.00 in0.0 mm
12:30 PM 81.2°F27.3°C 32.2°F0.1°C 17% 5.0 mph ESE8.0 kmh ESE 11.0 mph17.7 kmh 29.85 in1010.8 mb 0.00 in0.0 mm 0.00 in0.0 mm 0.00 in0.0 mm
12:35 PM 81.6°F27.6°C 32.5°F0.3°C 17% 7.0 mph ESE11.3 kmh ESE 11.0 mph17.7 kmh 29.85 in1010.8 mb 0.00 in0.0 mm 0.00 in0.0 mm 0.00 in0.0 mm
12:40 PM 81.6°F27.6°C 32.5°F0.3°C 17% 10.0 mph ESE16.1 kmh ESE 11.0 mph17.7 kmh 29.85 in1010.8 mb 0.00 in0.0 mm 0.00 in0.0 mm 0.00 in0.0 mm
12:45 PM 81.4°F27.4°C 32.4°F0.2°C 17% 3.0 mph ESE4.8 kmh ESE 11.0 mph17.7 kmh 29.84 in1010.5 mb 0.00 in0.0 mm 0.00 in0.0 mm 0.00 in0.0 mm
12:50 PM 81.4°F27.4°C 30.9°F-0.6°C 16% 6.0 mph ESE9.7 kmh ESE 11.0 mph17.7 kmh 29.84 in1010.5 mb 0.00 in0.0 mm 0.00 in0.0 mm 0.00 in0.0 mm
12:55 PM 81.4°F27.4°C 32.4°F0.2°C 17% 3.0 mph E4.8 kmh E 12.0 mph19.3 kmh 29.84 in1010.5 mb 0.00 in0.0 mm 0.00 in0.0 mm 0.00 in0.0 mm
01:00 PM 81.4°F27.4°C 30.9°F-0.6°C 16% 3.0 mph E4.8 kmh E 12.0 mph19.3 kmh 29.84 in1010.5 mb 0.00 in0.0 mm 0.00 in0.0 mm 0.00 in0.0 mm
01:05 PM 81.4°F27.4°C 32.4°F0.2°C 17% 6.0 mph ESE9.7 kmh ESE 12.0 mph19.3 kmh 29.84 in1010.5 mb 0.00 in0.0 mm 0.00 in0.0 mm 0.00 in0.0 mm
01:10 PM 81.2°F27.3°C 30.7°F-0.7°C 16% 5.0 mph SE8.0 kmh SE 12.0 mph19.3 kmh 29.84 in1010.5 mb 0.00 in0.0 mm 0.00 in0.0 mm 0.00 in0.0 mm
01:15 PM 81.1°F27.3°C 30.6°F-0.8°C 16% 3.0 mph E4.8 kmh E 10.0 mph16.1 kmh 29.84 in1010.5 mb 0.00 in0.0 mm 0.00 in0.0 mm 0.00 in0.0 mm
01:20 PM 80.9°F27.2°C 32.0°F0.0°C 17% 5.0 mph E8.0 kmh E 11.0 mph17.7 kmh 29.84 in1010.5 mb 0.00 in0.0 mm 0.00 in0.0 mm 0.00 in0.0 mm
01:25 PM 80.1°F26.7°C 29.8°F-1.2°C 16% 4.0 mph ENE6.4 kmh ENE 13.0 mph20.9 kmh 29.84 in1010.5 mb 0.00 in0.0 mm 0.00 in0.0 mm 0.00 in0.0 mm
01:30 PM 79.9°F26.6°C 31.2°F-0.4°C 17% 7.0 mph ENE11.3 kmh ENE 13.0 mph20.9 kmh 29.83 in1010.2 mb 0.00 in0.0 mm 0.00 in0.0 mm 0.00 in0.0 mm
01:35 PM 79.6°F26.4°C 30.9°F-0.6°C 17% 5.0 mph E8.0 kmh E 13.0 mph20.9 kmh 29.83 in1010.2 mb 0.00 in0.0 mm 0.00 in0.0 mm 0.00 in0.0 mm
01:40 PM 79.8°F26.6°C 31.1°F-0.5°C 17% 5.0 mph E8.0 kmh E 13.0 mph20.9 kmh 29.83 in1010.2 mb 0.00 in0.0 mm 0.00 in0.0 mm 0.00 in0.0 mm
01:45 PM 80.1°F26.7°C 31.3°F-0.4°C 17% 4.0 mph NE6.4 kmh NE 11.0 mph17.7 kmh 29.82 in1009.8 mb 0.00 in0.0 mm 0.00 in0.0 mm 0.00 in0.0 mm
01:50 PM 80.1°F26.7°C 31.3°F-0.4°C 17% 2.0 mph E3.2 kmh E 11.0 mph17.7 kmh 29.82 in1009.8 mb 0.00 in0.0 mm 0.00 in0.0 mm 0.00 in0.0 mm
01:55 PM 80.3°F26.8°C 31.5°F-0.3°C 17% 5.0 mph ENE8.0 kmh ENE 11.0 mph17.7 kmh 29.82 in1009.8 mb 0.00 in0.0 mm 0.00 in0.0 mm 0.00 in0.0 mm
02:00 PM 80.5°F26.9°C 30.2°F-1.0°C 16% 7.0 mph ESE11.3 kmh ESE 11.0 mph17.7 kmh 29.82 in1009.8 mb 0.00 in0.0 mm 0.00 in0.0 mm 0.00 in0.0 mm
02:05 PM 80.7°F27.1°C 30.3°F-0.9°C 16% 5.0 mph ENE8.0 kmh ENE 7.0 mph11.3 kmh 29.82 in1009.8 mb 0.00 in0.0 mm 0.00 in0.0 mm 0.00 in0.0 mm
02:10 PM 80.3°F26.8°C 30.0°F-1.1°C 16% 4.0 mph E6.4 kmh E 7.0 mph11.3 kmh 29.82 in1009.8 mb 0.00 in0.0 mm 0.00 in0.0 mm 0.00 in0.0 mm
02:15 PM 80.3°F26.8°C 30.0°F-1.1°C 16% 1.0 mph ENE1.6 kmh ENE 7.0 mph11.3 kmh 29.82 in1009.8 mb 0.00 in0.0 mm 0.00 in0.0 mm 0.00 in0.0 mm
02:20 PM 80.5°F26.9°C 30.2°F-1.0°C 16% 4.0 mph E6.4 kmh E 7.0 mph11.3 kmh 29.82 in1009.8 mb 0.00 in0.0 mm 0.00 in0.0 mm 0.00 in0.0 mm
02:25 PM 80.5°F26.9°C 30.2°F-1.0°C 16% 6.0 mph SE9.7 kmh SE 7.0 mph11.3 kmh 29.82 in1009.8 mb 0.00 in0.0 mm 0.00 in0.0 mm 0.00 in0.0 mm
02:30 PM 80.5°F26.9°C 30.2°F-1.0°C 16% 2.0 mph ENE3.2 kmh ENE 7.0 mph11.3 kmh 29.81 in1009.5 mb 0.00 in0.0 mm 0.00 in0.0 mm 0.00 in0.0 mm
02:35 PM 80.3°F26.8°C 30.0°F-1.1°C 16% 2.0 mph ENE3.2 kmh ENE 7.0 mph11.3 kmh 29.81 in1009.5 mb 0.00 in0.0 mm 0.00 in0.0 mm 0.00 in0.0 mm
02:40 PM 80.1°F26.7°C 31.3°F-0.4°C 17% 1.0 mph ENE1.6 kmh ENE 7.0 mph11.3 kmh 29.81 in1009.5 mb 0.00 in0.0 mm 0.00 in0.0 mm 0.00 in0.0 mm
02:45 PM 80.1°F26.7°C 31.3°F-0.4°C 17% 1.0 mph NE1.6 kmh NE 5.0 mph8.0 kmh 29.81 in1009.5 mb 0.00 in0.0 mm 0.00 in0.0 mm 0.00 in0.0 mm
02:50 PM 80.1°F26.7°C 29.8°F-1.2°C 16% 3.0 mph ESE4.8 kmh ESE 5.0 mph8.0 kmh 29.81 in1009.5 mb 0.00 in0.0 mm 0.00 in0.0 mm 0.00 in0.0 mm
02:55 PM 80.1°F26.7°C 29.8°F-1.2°C 16% 3.0 mph ESE4.8 kmh ESE 5.0 mph8.0 kmh 29.81 in1009.5 mb 0.00 in0.0 mm 0.00 in0.0 mm 0.00 in0.0 mm
03:00 PM 80.5°F26.9°C 31.7°F-0.2°C 17% 2.0 mph SE3.2 kmh SE 5.0 mph8.0 kmh 29.81 in1009.5 mb 0.00 in0.0 mm 0.00 in0.0 mm 0.00 in0.0 mm
03:05 PM 80.9°F27.2°C 32.0°F0.0°C 17% Calm Calm 5.0 mph8.0 kmh 29.81 in1009.5 mb 0.00 in0.0 mm 0.00 in0.0 mm 0.00 in0.0 mm
03:10 PM 81.2°F27.3°C 30.7°F-0.7°C 16% 1.0 mph SE1.6 kmh SE 5.0 mph8.0 kmh 29.81 in1009.5 mb 0.00 in0.0 mm 0.00 in0.0 mm 0.00 in0.0 mm
03:15 PM 81.1°F27.3°C 30.6°F-0.8°C 16% 4.0 mph SE6.4 kmh SE 6.0 mph9.7 kmh 29.81 in1009.5 mb 0.00 in0.0 mm 0.00 in0.0 mm 0.00 in0.0 mm
03:20 PM 81.1°F27.3°C 30.6°F-0.8°C 16% 1.0 mph SE1.6 kmh SE 6.0 mph9.7 kmh 29.81 in1009.5 mb 0.00 in0.0 mm 0.00 in0.0 mm 0.00 in0.0 mm
03:25 PM 80.7°F27.1°C 31.8°F-0.1°C 17% 4.0 mph SE6.4 kmh SE 6.0 mph9.7 kmh 29.81 in1009.5 mb 0.00 in0.0 mm 0.00 in0.0 mm 0.00 in0.0 mm
03:30 PM 80.5°F26.9°C 31.7°F-0.2°C 17% 6.0 mph SE9.7 kmh SE 9.0 mph14.5 kmh 29.80 in1009.1 mb 0.00 in0.0 mm 0.00 in0.0 mm 0.00 in0.0 mm
03:35 PM 80.1°F26.7°C 31.3°F-0.4°C 17% 4.0 mph SE6.4 kmh SE 9.0 mph14.5 kmh 29.80 in1009.1 mb 0.00 in0.0 mm 0.00 in0.0 mm 0.00 in0.0 mm
03:40 PM 79.9°F26.6°C 31.2°F-0.4°C 17% 2.0 mph SE3.2 kmh SE 9.0 mph14.5 kmh 29.80 in1009.1 mb 0.00 in0.0 mm 0.00 in0.0 mm 0.00 in0.0 mm
03:45 PM 79.8°F26.6°C 32.5°F0.3°C 18% 2.0 mph E3.2 kmh E 9.0 mph14.5 kmh 29.80 in1009.1 mb 0.00 in0.0 mm 0.00 in0.0 mm 0.00 in0.0 mm
03:50 PM 79.6°F26.4°C 30.9°F-0.6°C 17% 1.0 mph E1.6 kmh E 8.0 mph12.9 kmh 29.80 in1009.1 mb 0.00 in0.0 mm 0.00 in0.0 mm 0.00 in0.0 mm
03:55 PM 79.4°F26.3°C 30.8°F-0.7°C 17% 3.0 mph E4.8 kmh E 8.0 mph12.9 kmh 29.80 in1009.1 mb 0.00 in0.0 mm 0.00 in0.0 mm 0.00 in0.0 mm
04:00 PM 79.2°F26.2°C 32.0°F0.0°C 18% 2.0 mph E3.2 kmh E 7.0 mph11.3 kmh 29.81 in1009.5 mb 0.00 in0.0 mm 0.00 in0.0 mm 0.00 in0.0 mm
04:05 PM 78.8°F26.0°C 30.3°F-0.9°C 17% 2.0 mph E3.2 kmh E 7.0 mph11.3 kmh 29.81 in1009.5 mb 0.00 in0.0 mm 0.00 in0.0 mm 0.00 in0.0 mm
04:10 PM 78.3°F25.7°C 31.3°F-0.4°C 18% 3.0 mph ENE4.8 kmh ENE 7.0 mph11.3 kmh 29.81 in1009.5 mb 0.00 in0.0 mm 0.00 in0.0 mm 0.00 in0.0 mm
04:15 PM 77.9°F25.5°C 31.0°F-0.6°C 18% 1.0 mph E1.6 kmh E 7.0 mph11.3 kmh 29.81 in1009.5 mb 0.00 in0.0 mm 0.00 in0.0 mm 0.00 in0.0 mm
04:20 PM 77.4°F25.2°C 30.6°F-0.8°C 18% 1.0 mph SSE1.6 kmh SSE 5.0 mph8.0 kmh 29.81 in1009.5 mb 0.00 in0.0 mm 0.00 in0.0 mm 0.00 in0.0 mm
04:25 PM 76.8°F24.9°C 31.4°F-0.3°C 19% Calm Calm 5.0 mph8.0 kmh 29.81 in1009.5 mb 0.00 in0.0 mm 0.00 in0.0 mm 0.00 in0.0 mm
04:30 PM 76.3°F24.6°C 31.0°F-0.6°C 19% 1.0 mph NE1.6 kmh NE 5.0 mph8.0 kmh 29.82 in1009.8 mb 0.00 in0.0 mm 0.00 in0.0 mm 0.00 in0.0 mm
04:35 PM 75.6°F24.2°C 30.4°F-0.9°C 19% 2.0 mph NE3.2 kmh NE 5.0 mph8.0 kmh 29.82 in1009.8 mb 0.00 in0.0 mm 0.00 in0.0 mm 0.00 in0.0 mm
04:40 PM 75.3°F24.1°C 30.2°F-1.0°C 19% 3.0 mph NE4.8 kmh NE 5.0 mph8.0 kmh 29.82 in1009.8 mb 0.00 in0.0 mm 0.00 in0.0 mm 0.00 in0.0 mm
04:45 PM 75.3°F24.1°C 30.2°F-1.0°C 19% 4.0 mph NE6.4 kmh NE 5.0 mph8.0 kmh 29.82 in1009.8 mb 0.00 in0.0 mm 0.00 in0.0 mm 0.00 in0.0 mm
04:50 PM 75.4°F24.1°C 30.3°F-0.9°C 19% 2.0 mph ENE3.2 kmh ENE 5.0 mph8.0 kmh 29.82 in1009.8 mb 0.00 in0.0 mm 0.00 in0.0 mm 0.00 in0.0 mm
04:55 PM 75.1°F23.9°C 30.0°F-1.1°C 19% 4.0 mph ENE6.4 kmh ENE 5.0 mph8.0 kmh 29.82 in1009.8 mb 0.00 in0.0 mm 0.00 in0.0 mm 0.00 in0.0 mm
05:00 PM 74.7°F23.7°C 31.0°F-0.6°C 20% 1.0 mph ENE1.6 kmh ENE 6.0 mph9.7 kmh 29.82 in1009.8 mb 0.00 in0.0 mm 0.00 in0.0 mm 0.00 in0.0 mm
05:05 PM 74.4°F23.6°C 30.7°F-0.7°C 20% Calm Calm 6.0 mph9.7 kmh 29.82 in1009.8 mb 0.00 in0.0 mm 0.00 in0.0 mm 0.00 in0.0 mm
05:10 PM 73.5°F23.1°C 30.0°F-1.1°C 20% 2.0 mph ENE3.2 kmh ENE 2.0 mph3.2 kmh 29.82 in1009.8 mb 0.00 in0.0 mm 0.00 in0.0 mm 0.00 in0.0 mm
05:15 PM 72.5°F22.5°C 30.3°F-0.9°C 21% Calm Calm 2.0 mph3.2 kmh 29.83 in1010.2 mb 0.00 in0.0 mm 0.00 in0.0 mm 0.00 in0.0 mm
05:20 PM 71.6°F22.0°C 30.7°F-0.7°C 22% Calm Calm 4.0 mph6.4 kmh 29.83 in1010.2 mb 0.00 in0.0 mm 0.00 in0.0 mm 0.00 in0.0 mm
05:25 PM 71.1°F21.7°C 30.3°F-0.9°C 22% 1.0 mph ENE1.6 kmh ENE 4.0 mph6.4 kmh 29.83 in1010.2 mb 0.00 in0.0 mm 0.00 in0.0 mm 0.00 in0.0 mm
05:30 PM 70.4°F21.3°C 30.8°F-0.7°C 23% 1.0 mph ENE1.6 kmh ENE 6.0 mph9.7 kmh 29.83 in1010.2 mb 0.00 in0.0 mm 0.00 in0.0 mm 0.00 in0.0 mm
05:35 PM 69.9°F21.1°C 30.4°F-0.9°C 23% Calm Calm -- 29.83 in1010.2 mb 0.00 in0.0 mm 0.00 in0.0 mm 0.00 in0.0 mm
05:40 PM 69.3°F20.7°C 29.9°F-1.2°C 23% Calm Calm 1.0 mph1.6 kmh 29.83 in1010.2 mb 0.00 in0.0 mm 0.00 in0.0 mm 0.00 in0.0 mm
05:45 PM 68.4°F20.2°C 30.2°F-1.0°C 24% 1.0 mph ENE1.6 kmh ENE 2.0 mph3.2 kmh 29.84 in1010.5 mb 0.00 in0.0 mm 0.00 in0.0 mm 0.00 in0.0 mm
05:50 PM 67.8°F19.9°C 29.7°F-1.3°C 24% 3.0 mph ENE4.8 kmh ENE 3.0 mph4.8 kmh 29.84 in1010.5 mb 0.00 in0.0 mm 0.00 in0.0 mm 0.00 in0.0 mm
05:55 PM 67.4°F19.7°C 29.4°F-1.4°C 24% 2.0 mph ENE3.2 kmh ENE 4.0 mph6.4 kmh 29.84 in1010.5 mb 0.00 in0.0 mm 0.00 in0.0 mm 0.00 in0.0 mm
06:00 PM 67.3°F19.6°C 29.3°F-1.5°C 24% 3.0 mph ENE4.8 kmh ENE 4.0 mph6.4 kmh 29.85 in1010.8 mb 0.00 in0.0 mm 0.00 in0.0 mm 0.00 in0.0 mm
06:05 PM 67.1°F19.5°C 29.1°F-1.6°C 24% 3.0 mph ENE4.8 kmh ENE 4.0 mph6.4 kmh 29.85 in1010.8 mb 0.00 in0.0 mm 0.00 in0.0 mm 0.00 in0.0 mm
06:10 PM 66.9°F19.4°C 28.9°F-1.7°C 24% 4.0 mph NE6.4 kmh NE 6.0 mph9.7 kmh 29.85 in1010.8 mb 0.00 in0.0 mm 0.00 in0.0 mm 0.00 in0.0 mm
06:15 PM 67.6°F19.8°C 29.5°F-1.4°C 24% 4.0 mph ENE6.4 kmh ENE 6.0 mph9.7 kmh 29.84 in1010.5 mb 0.00 in0.0 mm 0.00 in0.0 mm 0.00 in0.0 mm
06:20 PM 67.9°F19.9°C 29.8°F-1.2°C 24% 3.0 mph ENE4.8 kmh ENE 6.0 mph9.7 kmh 29.84 in1010.5 mb 0.00 in0.0 mm 0.00 in0.0 mm 0.00 in0.0 mm
06:25 PM 67.8°F19.9°C 29.7°F-1.3°C 24% 2.0 mph ENE3.2 kmh ENE 6.0 mph9.7 kmh 29.84 in1010.5 mb 0.00 in0.0 mm 0.00 in0.0 mm 0.00 in0.0 mm
06:30 PM 67.3°F19.6°C 29.3°F-1.5°C 24% 1.0 mph ENE1.6 kmh ENE 4.0 mph6.4 kmh 29.84 in1010.5 mb 0.00 in0.0 mm 0.00 in0.0 mm 0.00 in0.0 mm
06:35 PM 66.6°F19.2°C 28.7°F-1.8°C 24% 2.0 mph ENE3.2 kmh ENE 4.0 mph6.4 kmh 29.84 in1010.5 mb 0.00 in0.0 mm 0.00 in0.0 mm 0.00 in0.0 mm
06:40 PM 65.6°F18.7°C 28.8°F-1.8°C 25% 2.0 mph ENE3.2 kmh ENE 3.0 mph4.8 kmh 29.84 in1010.5 mb 0.00 in0.0 mm 0.00 in0.0 mm 0.00 in0.0 mm
06:45 PM 65.0°F18.3°C 29.3°F-1.5°C 26% 4.0 mph ENE6.4 kmh ENE 4.0 mph6.4 kmh 29.85 in1010.8 mb 0.00 in0.0 mm 0.00 in0.0 mm 0.00 in0.0 mm
06:50 PM 65.5°F18.6°C 28.7°F-1.8°C 25% 3.0 mph ENE4.8 kmh ENE 5.0 mph8.0 kmh 29.85 in1010.8 mb 0.00 in0.0 mm 0.00 in0.0 mm 0.00 in0.0 mm
06:55 PM 65.8°F18.8°C 29.0°F-1.7°C 25% 2.0 mph ENE3.2 kmh ENE 5.0 mph8.0 kmh 29.85 in1010.8 mb 0.00 in0.0 mm 0.00 in0.0 mm 0.00 in0.0 mm
07:00 PM 65.3°F18.5°C 28.6°F-1.9°C 25% Calm Calm 5.0 mph8.0 kmh 29.85 in1010.8 mb 0.00 in0.0 mm 0.00 in0.0 mm 0.00 in0.0 mm
07:05 PM 64.8°F18.2°C 28.2°F-2.1°C 25% 2.0 mph ENE3.2 kmh ENE 2.0 mph3.2 kmh 29.85 in1010.8 mb 0.00 in0.0 mm 0.00 in0.0 mm 0.00 in0.0 mm
07:10 PM 64.0°F17.8°C 28.4°F-2.0°C 26% 3.0 mph ENE4.8 kmh ENE 3.0 mph4.8 kmh 29.85 in1010.8 mb 0.00 in0.0 mm 0.00 in0.0 mm 0.00 in0.0 mm
07:15 PM 63.7°F17.6°C 29.1°F-1.6°C 27% 3.0 mph ENE4.8 kmh ENE 4.0 mph6.4 kmh 29.85 in1010.8 mb 0.00 in0.0 mm 0.00 in0.0 mm 0.00 in0.0 mm
07:20 PM 64.0°F17.8°C 28.4°F-2.0°C 26% 3.0 mph ENE4.8 kmh ENE 4.0 mph6.4 kmh 29.85 in1010.8 mb 0.00 in0.0 mm 0.00 in0.0 mm 0.00 in0.0 mm
07:25 PM 64.3°F17.9°C 27.7°F-2.4°C 25% 3.0 mph ENE4.8 kmh ENE 4.0 mph6.4 kmh 29.85 in1010.8 mb 0.00 in0.0 mm 0.00 in0.0 mm 0.00 in0.0 mm
07:30 PM 64.8°F18.2°C 28.2°F-2.1°C 25% 3.0 mph ENE4.8 kmh ENE 5.0 mph8.0 kmh 29.85 in1010.8 mb 0.00 in0.0 mm 0.00 in0.0 mm 0.00 in0.0 mm
07:35 PM 65.5°F18.6°C 28.7°F-1.8°C 25% 3.0 mph E4.8 kmh E 5.0 mph8.0 kmh 29.85 in1010.8 mb 0.00 in0.0 mm 0.00 in0.0 mm 0.00 in0.0 mm
07:40 PM 65.2°F18.4°C 28.5°F-1.9°C 25% Calm Calm 5.0 mph8.0 kmh 29.85 in1010.8 mb 0.00 in0.0 mm 0.00 in0.0 mm 0.00 in0.0 mm
07:45 PM 64.5°F18.1°C 27.9°F-2.3°C 25% 1.0 mph E1.6 kmh E 5.0 mph8.0 kmh 29.85 in1010.8 mb 0.00 in0.0 mm 0.00 in0.0 mm 0.00 in0.0 mm
07:50 PM 64.0°F17.8°C 28.4°F-2.0°C 26% 1.0 mph E1.6 kmh E 4.0 mph6.4 kmh 29.85 in1010.8 mb 0.00 in0.0 mm 0.00 in0.0 mm 0.00 in0.0 mm
07:55 PM 63.5°F17.5°C 28.0°F-2.2°C 26% 1.0 mph E1.6 kmh E 2.0 mph3.2 kmh 29.85 in1010.8 mb 0.00 in0.0 mm 0.00 in0.0 mm 0.00 in0.0 mm
08:00 PM 63.1°F17.3°C 27.7°F-2.4°C 26% Calm Calm 1.0 mph1.6 kmh 29.86 in1011.2 mb 0.00 in0.0 mm 0.00 in0.0 mm 0.00 in0.0 mm
08:05 PM 62.4°F16.9°C 28.0°F-2.2°C 27% 1.0 mph E1.6 kmh E 2.0 mph3.2 kmh 29.86 in1011.2 mb 0.00 in0.0 mm 0.00 in0.0 mm 0.00 in0.0 mm
08:10 PM 61.8°F16.6°C 27.5°F-2.5°C 27% Calm Calm 2.0 mph3.2 kmh 29.86 in1011.2 mb 0.00 in0.0 mm 0.00 in0.0 mm 0.00 in0.0 mm
08:15 PM 61.5°F16.4°C 28.1°F-2.2°C 28% Calm Calm -- 29.85 in1010.8 mb 0.00 in0.0 mm 0.00 in0.0 mm 0.00 in0.0 mm
08:20 PM 61.0°F16.1°C 27.7°F-2.4°C 28% Calm Calm 1.0 mph1.6 kmh 29.85 in1010.8 mb 0.00 in0.0 mm 0.00 in0.0 mm 0.00 in0.0 mm
08:25 PM 60.5°F15.8°C 26.4°F-3.1°C 27% Calm Calm 1.0 mph1.6 kmh 29.85 in1010.8 mb 0.00 in0.0 mm 0.00 in0.0 mm 0.00 in0.0 mm
08:30 PM 60.2°F15.7°C 27.0°F-2.8°C 28% Calm Calm -- 29.86 in1011.2 mb 0.00 in0.0 mm 0.00 in0.0 mm 0.00 in0.0 mm
08:35 PM 59.9°F15.5°C 26.7°F-2.9°C 28% Calm Calm 1.0 mph1.6 kmh 29.86 in1011.2 mb 0.00 in0.0 mm 0.00 in0.0 mm 0.00 in0.0 mm
08:40 PM 59.6°F15.3°C 27.3°F-2.6°C 29% 1.0 mph E1.6 kmh E 2.0 mph3.2 kmh 29.86 in1011.2 mb 0.00 in0.0 mm 0.00 in0.0 mm 0.00 in0.0 mm
08:45 PM 59.3°F15.2°C 27.1°F-2.7°C 29% 2.0 mph E3.2 kmh E 3.0 mph4.8 kmh 29.86 in1011.2 mb 0.00 in0.0 mm 0.00 in0.0 mm 0.00 in0.0 mm
08:50 PM 59.6°F15.3°C 27.3°F-2.6°C 29% 3.0 mph E4.8 kmh E 3.0 mph4.8 kmh 29.86 in1011.2 mb 0.00 in0.0 mm 0.00 in0.0 mm 0.00 in0.0 mm
08:55 PM 59.8°F15.4°C 26.6°F-3.0°C 28% Calm Calm 3.0 mph4.8 kmh 29.86 in1011.2 mb 0.00 in0.0 mm 0.00 in0.0 mm 0.00 in0.0 mm
09:00 PM 59.6°F15.3°C 27.3°F-2.6°C 29% 1.0 mph E1.6 kmh E 1.0 mph1.6 kmh 29.86 in1011.2 mb 0.00 in0.0 mm 0.00 in0.0 mm 0.00 in0.0 mm
09:05 PM 59.8°F15.4°C 26.6°F-3.0°C 28% Calm Calm 2.0 mph3.2 kmh 29.86 in1011.2 mb 0.00 in0.0 mm 0.00 in0.0 mm 0.00 in0.0 mm
09:10 PM 59.8°F15.4°C 27.5°F-2.5°C 29% Calm Calm 2.0 mph3.2 kmh 29.86 in1011.2 mb 0.00 in0.0 mm 0.00 in0.0 mm 0.00 in0.0 mm
09:15 PM 59.5°F15.3°C 27.2°F-2.7°C 29% 3.0 mph E4.8 kmh E 3.0 mph4.8 kmh 29.84 in1010.5 mb 0.00 in0.0 mm 0.00 in0.0 mm 0.00 in0.0 mm
09:20 PM 59.3°F15.2°C 27.9°F-2.3°C 30% 1.0 mph E1.6 kmh E 3.0 mph4.8 kmh 29.84 in1010.5 mb 0.00 in0.0 mm 0.00 in0.0 mm 0.00 in0.0 mm
09:25 PM 59.3°F15.2°C 27.9°F-2.3°C 30% 2.0 mph E3.2 kmh E 4.0 mph6.4 kmh 29.84 in1010.5 mb 0.00 in0.0 mm 0.00 in0.0 mm 0.00 in0.0 mm
09:30 PM 59.2°F15.1°C 27.8°F-2.3°C 30% 2.0 mph E3.2 kmh E 4.0 mph6.4 kmh 29.85 in1010.8 mb 0.00 in0.0 mm 0.00 in0.0 mm 0.00 in0.0 mm
09:35 PM 59.0°F15.0°C 26.8°F-2.9°C 29% 3.0 mph E4.8 kmh E 4.0 mph6.4 kmh 29.85 in1010.8 mb 0.00 in0.0 mm 0.00 in0.0 mm 0.00 in0.0 mm
09:40 PM 59.6°F15.3°C 27.3°F-2.6°C 29% 2.0 mph E3.2 kmh E 4.0 mph6.4 kmh 29.85 in1010.8 mb 0.00 in0.0 mm 0.00 in0.0 mm 0.00 in0.0 mm
09:45 PM 59.8°F15.4°C 26.6°F-3.0°C 28% 2.0 mph E3.2 kmh E 4.0 mph6.4 kmh 29.84 in1010.5 mb 0.00 in0.0 mm 0.00 in0.0 mm 0.00 in0.0 mm
09:50 PM 59.6°F15.3°C 26.5°F-3.1°C 28% 3.0 mph E4.8 kmh E 4.0 mph6.4 kmh 29.84 in1010.5 mb 0.00 in0.0 mm 0.00 in0.0 mm 0.00 in0.0 mm
09:55 PM 59.5°F15.3°C 26.4°F-3.1°C 28% 1.0 mph E1.6 kmh E 3.0 mph4.8 kmh 29.84 in1010.5 mb 0.00 in0.0 mm 0.00 in0.0 mm 0.00 in0.0 mm
10:00 PM 59.2°F15.1°C 26.1°F-3.3°C 28% 1.0 mph E1.6 kmh E 1.0 mph1.6 kmh 29.84 in1010.5 mb 0.00 in0.0 mm 0.00 in0.0 mm 0.00 in0.0 mm
10:05 PM 58.9°F14.9°C 25.9°F-3.4°C 28% Calm Calm -- 29.84 in1010.5 mb 0.00 in0.0 mm 0.00 in0.0 mm 0.00 in0.0 mm
10:10 PM 58.7°F14.8°C 26.5°F-3.1°C 29% Calm Calm -- 29.84 in1010.5 mb 0.00 in0.0 mm 0.00 in0.0 mm 0.00 in0.0 mm
10:15 PM 58.6°F14.8°C 26.4°F-3.1°C 29% Calm Calm -- 29.84 in1010.5 mb 0.00 in0.0 mm 0.00 in0.0 mm 0.00 in0.0 mm
10:20 PM 58.4°F14.7°C 26.3°F-3.2°C 29% 1.0 mph E1.6 kmh E 1.0 mph1.6 kmh 29.84 in1010.5 mb 0.00 in0.0 mm 0.00 in0.0 mm 0.00 in0.0 mm
10:25 PM 58.4°F14.7°C 26.3°F-3.2°C 29% 1.0 mph E1.6 kmh E 3.0 mph4.8 kmh 29.84 in1010.5 mb 0.00 in0.0 mm 0.00 in0.0 mm 0.00 in0.0 mm
10:30 PM 58.6°F14.8°C 25.6°F-3.6°C 28% 1.0 mph E1.6 kmh E 3.0 mph4.8 kmh 29.83 in1010.2 mb 0.00 in0.0 mm 0.00 in0.0 mm 0.00 in0.0 mm
10:35 PM 58.4°F14.7°C 26.3°F-3.2°C 29% 1.0 mph E1.6 kmh E 1.0 mph1.6 kmh 29.83 in1010.2 mb 0.00 in0.0 mm 0.00 in0.0 mm 0.00 in0.0 mm
10:40 PM 58.3°F14.6°C 26.2°F-3.2°C 29% Calm Calm 1.0 mph1.6 kmh 29.83 in1010.2 mb 0.00 in0.0 mm 0.00 in0.0 mm 0.00 in0.0 mm
10:45 PM 58.0°F14.4°C 25.9°F-3.4°C 29% Calm Calm -- 29.82 in1009.8 mb 0.00 in0.0 mm 0.00 in0.0 mm 0.00 in0.0 mm
10:50 PM 57.6°F14.2°C 26.4°F-3.1°C 30% Calm Calm 1.0 mph1.6 kmh 29.82 in1009.8 mb 0.00 in0.0 mm 0.00 in0.0 mm 0.00 in0.0 mm
10:55 PM 57.5°F14.2°C 26.3°F-3.2°C 30% 1.0 mph E1.6 kmh E 1.0 mph1.6 kmh 29.82 in1009.8 mb 0.00 in0.0 mm 0.00 in0.0 mm 0.00 in0.0 mm
11:00 PM 57.8°F14.3°C 25.8°F-3.4°C 29% Calm Calm 1.0 mph1.6 kmh 29.82 in1009.8 mb 0.00 in0.0 mm 0.00 in0.0 mm 0.00 in0.0 mm
11:05 PM 58.1°F14.5°C 26.0°F-3.3°C 29% Calm Calm 2.0 mph3.2 kmh 29.82 in1009.8 mb 0.00 in0.0 mm 0.00 in0.0 mm 0.00 in0.0 mm
11:10 PM 57.8°F14.3°C 26.6°F-3.0°C 30% 2.0 mph E3.2 kmh E 2.0 mph3.2 kmh 29.82 in1009.8 mb 0.00 in0.0 mm 0.00 in0.0 mm 0.00 in0.0 mm
11:15 PM 57.2°F14.0°C 26.1°F-3.3°C 30% Calm Calm -- 29.82 in1009.8 mb 0.00 in0.0 mm 0.00 in0.0 mm 0.00 in0.0 mm
11:20 PM 56.6°F13.7°C 26.3°F-3.2°C 31% 1.0 mph E1.6 kmh E 3.0 mph4.8 kmh 29.82 in1009.8 mb 0.00 in0.0 mm 0.00 in0.0 mm 0.00 in0.0 mm
11:25 PM 56.0°F13.3°C 25.8°F-3.4°C 31% Calm Calm 1.0 mph1.6 kmh 29.82 in1009.8 mb 0.00 in0.0 mm 0.00 in0.0 mm 0.00 in0.0 mm
11:30 PM 55.9°F13.3°C 25.7°F-3.5°C 31% 1.0 mph E1.6 kmh E 3.0 mph4.8 kmh 29.82 in1009.8 mb 0.00 in0.0 mm 0.00 in0.0 mm 0.00 in0.0 mm
11:35 PM 56.2°F13.4°C 26.0°F-3.3°C 31% 3.0 mph NE4.8 kmh NE 4.0 mph6.4 kmh 29.82 in1009.8 mb 0.00 in0.0 mm 0.00 in0.0 mm 0.00 in0.0 mm
11:40 PM 57.2°F14.0°C 26.1°F-3.3°C 30% 1.0 mph NE1.6 kmh NE 4.0 mph6.4 kmh 29.82 in1009.8 mb 0.00 in0.0 mm 0.00 in0.0 mm 0.00 in0.0 mm
11:45 PM 57.5°F14.2°C 24.7°F-4.1°C 28% 2.0 mph NE3.2 kmh NE 4.0 mph6.4 kmh 29.81 in1009.5 mb 0.00 in0.0 mm 0.00 in0.0 mm 0.00 in0.0 mm
11:50 PM 57.6°F14.2°C 24.7°F-4.1°C 28% 2.0 mph NE3.2 kmh NE 4.0 mph6.4 kmh 29.81 in1009.5 mb 0.00 in0.0 mm 0.00 in0.0 mm 0.00 in0.0 mm
11:55 PM 57.8°F14.3°C 24.9°F-3.9°C 28% Calm Calm 3.0 mph4.8 kmh 29.81 in1009.5 mb 0.00 in0.0 mm 0.00 in0.0 mm 0.00 in0.0 mm